Time;durP1;ratioP1;P1;durP2;ratioP2;P2;SDS_P1;SDS_P2;PMS_P1;PMS_P2;Temp;Humidity;BMP_temperature;BMP_pressure;BME280_temperature;BME280_humidity;BME280_pressure;Samples;Min_cycle;Max_cycle;Signal;HPM_P1;HPM_P2
2023/07/22 00:01:00;;;;;;;2.35;1.60;;;14.60;99.90;;;;;;5084556;28;20170;-33
2023/07/22 00:03:26;;;;;;;3.08;1.80;;;14.60;99.90;;;;;;5078613;28;20040;-34
2023/07/22 00:06:03;;;;;;;3.03;1.52;;;14.60;99.90;;;;;;5079381;28;20108;-33
2023/07/22 00:08:29;;;;;;;2.00;1.85;;;14.60;99.90;;;;;;5082412;28;20027;-35
2023/07/22 00:10:54;;;;;;;1.55;1.40;;;14.40;99.90;;;;;;5082826;28;20024;-33
2023/07/22 00:13:20;;;;;;;2.78;1.70;;;14.40;99.90;;;;;;5081647;28;20091;-35
2023/07/22 00:15:45;;;;;;;1.83;1.50;;;14.40;99.90;;;;;;5080869;28;20028;-32
2023/07/22 00:18:11;;;;;;;3.08;1.52;;;14.20;99.90;;;;;;5086801;28;20653;-35
2023/07/22 00:20:37;;;;;;;2.55;1.85;;;14.20;99.90;;;;;;5085054;28;20028;-33
2023/07/22 00:23:02;;;;;;;1.75;1.63;;;14.20;99.90;;;;;;5083331;28;20517;-34
2023/07/22 00:25:28;;;;;;;2.38;2.00;;;14.00;99.90;;;;;;5080112;28;20028;-33
2023/07/22 00:27:53;;;;;;;1.85;1.55;;;13.80;99.90;;;;;;5081351;28;20024;-33
2023/07/22 00:30:19;;;;;;;2.22;1.58;;;13.80;99.90;;;;;;5080476;28;20063;-37
2023/07/22 00:32:44;;;;;;;4.28;1.58;;;13.90;99.90;;;;;;5081612;28;20035;-33
2023/07/22 00:35:10;;;;;;;2.53;1.35;;;14.00;99.90;;;;;;5086729;28;20031;-32
2023/07/22 00:37:36;;;;;;;1.90;1.60;;;14.10;99.90;;;;;;5086956;27;20093;-33
2023/07/22 00:40:05;;;;;;;1.90;1.60;;;14.10;99.90;;;;;;5083802;28;20397;-33
2023/07/22 00:42:31;;;;;;;2.10;1.80;;;14.10;99.90;;;;;;5082975;28;20552;-32
2023/07/22 00:44:57;;;;;;;3.58;1.77;;;14.20;99.90;;;;;;5078661;28;20026;-32
2023/07/22 00:47:23;;;;;;;1.95;1.60;;;14.20;99.90;;;;;;5081707;28;20210;-33
2023/07/22 00:49:50;;;;;;;2.40;1.40;;;14.20;99.90;;;;;;5083620;28;20032;-32
2023/07/22 00:52:17;;;;;;;2.92;1.50;;;14.20;99.90;;;;;;5077716;28;20133;-33
2023/07/22 00:54:43;;;;;;;4.03;1.80;;;14.10;99.90;;;;;;5088118;28;20733;-34
2023/07/22 00:57:09;;;;;;;1.60;1.50;;;14.10;99.90;;;;;;5083690;28;20036;-33
2023/07/22 00:59:35;;;;;;;1.52;1.42;;;14.00;99.90;;;;;;5084620;28;20035;-30
2023/07/22 01:02:01;;;;;;;2.28;1.70;;;14.00;99.90;;;;;;5079559;28;20056;-39
2023/07/22 01:04:27;;;;;;;3.17;1.75;;;13.90;99.90;;;;;;5080162;28;20105;-41
2023/07/22 01:06:53;;;;;;;1.67;1.42;;;13.90;99.90;;;;;;5077669;28;20024;-41
2023/07/22 01:09:18;;;;;;;2.90;1.50;;;13.80;99.90;;;;;;5078562;28;20037;-41
2023/07/22 01:11:44;;;;;;;2.25;1.60;;;13.80;99.90;;;;;;5081917;28;20417;-42
2023/07/22 01:14:10;;;;;;;3.95;1.80;;;13.80;99.90;;;;;;5079987;28;20036;-38
2023/07/22 01:16:36;;;;;;;1.65;1.50;;;13.60;99.90;;;;;;5079215;28;20557;-39
2023/07/22 01:19:04;;;;;;;1.42;1.30;;;13.50;99.90;;;;;;5076718;28;20133;-41
2023/07/22 01:21:31;;;;;;;;;;;13.50;99.90;;;;;;5081495;28;21614;-40
2023/07/22 01:23:57;;;;;;;1.73;1.38;;;13.50;99.90;;;;;;5075508;28;19931;-41
2023/07/22 01:26:22;;;;;;;2.42;1.63;;;13.30;99.90;;;;;;5080935;28;20031;-40
2023/07/22 01:28:48;;;;;;;2.72;1.58;;;13.40;99.90;;;;;;5080249;28;20020;-41
2023/07/22 01:31:14;;;;;;;1.88;1.73;;;13.50;99.90;;;;;;5082490;28;20024;-40
2023/07/22 01:33:39;;;;;;;2.92;1.60;;;13.50;99.90;;;;;;5085121;28;20020;-41
2023/07/22 01:36:05;;;;;;;3.65;2.15;;;13.40;99.90;;;;;;5081762;28;20024;-40
2023/07/22 01:38:33;;;;;;;2.30;1.80;;;13.30;99.90;;;;;;5076451;28;20031;-41
2023/07/22 01:40:59;;;;;;;4.28;1.65;;;13.20;99.90;;;;;;5078275;28;20047;-41
2023/07/22 01:43:24;;;;;;;4.82;1.80;;;13.30;99.90;;;;;;5078104;28;20528;-40
2023/07/22 01:45:50;;;;;;;2.03;1.48;;;13.10;99.90;;;;;;5084393;28;20038;-42
2023/07/22 01:48:16;;;;;;;3.22;1.50;;;13.20;99.90;;;;;;5079969;28;20059;-41
2023/07/22 01:50:41;;;;;;;3.22;1.30;;;13.20;99.90;;;;;;5084001;28;20037;-40
2023/07/22 01:53:07;;;;;;;3.17;1.52;;;13.20;99.90;;;;;;5082557;28;20077;-40
2023/07/22 01:55:33;;;;;;;2.55;1.52;;;13.10;99.90;;;;;;5080626;28;20051;-41
2023/07/22 01:57:58;;;;;;;3.47;1.70;;;13.00;99.90;;;;;;5080315;28;20052;-41
2023/07/22 02:00:24;;;;;;;2.80;1.60;;;13.00;99.90;;;;;;5077810;28;20035;-40
2023/07/22 02:02:50;;;;;;;1.92;1.60;;;13.00;99.90;;;;;;5073796;28;20135;-41
2023/07/22 02:05:16;;;;;;;2.30;1.77;;;13.00;99.90;;;;;;5078655;28;20032;-41
2023/07/22 02:07:41;;;;;;;1.92;1.73;;;13.00;99.90;;;;;;5085908;28;20064;-39
2023/07/22 02:10:08;;;;;;;5.38;1.80;;;12.80;99.90;;;;;;5080592;28;20024;-33
2023/07/22 02:12:34;;;;;;;2.28;1.50;;;12.70;99.90;;;;;;5081461;28;20825;-33
2023/07/22 02:14:59;;;;;;;2.05;1.50;;;12.60;99.90;;;;;;5081341;28;20032;-32
2023/07/22 02:17:25;;;;;;;1.35;1.25;;;12.50;99.90;;;;;;5078218;28;20504;-36
2023/07/22 02:19:51;;;;;;;1.33;1.23;;;12.40;99.90;;;;;;5077187;28;20029;-35
2023/07/22 02:22:16;;;;;;;1.52;1.30;;;12.50;99.90;;;;;;5082628;28;20496;-33
2023/07/22 02:24:42;;;;;;;3.20;1.83;;;12.60;99.90;;;;;;5086850;28;20020;-33
2023/07/22 02:27:08;;;;;;;2.15;1.80;;;12.60;99.90;;;;;;5086882;28;20039;-33
2023/07/22 02:29:34;;;;;;;2.25;1.73;;;12.60;99.90;;;;;;5085587;28;20070;-35
2023/07/22 02:32:00;;;;;;;2.80;1.67;;;12.60;99.90;;;;;;5080208;28;20478;-33
2023/07/22 02:34:26;;;;;;;2.42;1.80;;;12.60;99.90;;;;;;5087144;28;20043;-36
2023/07/22 02:36:52;;;;;;;4.03;1.90;;;12.60;99.90;;;;;;5085938;28;20032;-33
2023/07/22 02:39:17;;;;;;;1.88;1.70;;;12.60;99.90;;;;;;5082953;28;20028;-34
2023/07/22 02:41:43;;;;;;;3.45;1.80;;;12.60;99.90;;;;;;5086424;28;20108;-34
2023/07/22 02:44:08;;;;;;;3.92;1.67;;;12.50;99.90;;;;;;5083870;28;20110;-32
2023/07/22 02:46:34;;;;;;;2.17;1.95;;;12.50;99.90;;;;;;5083187;28;20026;-33
2023/07/22 02:48:59;;;;;;;1.65;1.55;;;12.50;99.90;;;;;;5085647;28;20025;-33
2023/07/22 02:51:25;;;;;;;3.42;1.90;;;12.40;99.90;;;;;;5081669;28;20032;-34
2023/07/22 02:53:51;;;;;;;1.80;1.70;;;12.40;99.90;;;;;;5085108;28;20046;-35
2023/07/22 02:56:16;;;;;;;3.10;2.00;;;12.40;99.90;;;;;;5080357;28;20492;-33
2023/07/22 02:58:43;;;;;;;4.80;2.10;;;12.30;99.90;;;;;;5080563;28;20028;-34
2023/07/22 03:01:08;;;;;;;2.53;1.77;;;12.20;99.90;;;;;;5080996;27;20035;-33
2023/07/22 03:03:35;;;;;;;1.50;1.40;;;12.20;99.90;;;;;;5086340;28;20490;-34
2023/07/22 03:06:01;;;;;;;1.80;1.70;;;12.30;99.90;;;;;;5084711;28;20031;-35
2023/07/22 03:08:27;;;;;;;2.60;1.83;;;12.30;99.90;;;;;;5086654;28;20024;-33
2023/07/22 03:10:53;;;;;;;1.50;1.40;;;12.30;99.90;;;;;;5081201;28;20052;-33
2023/07/22 03:13:18;;;;;;;2.00;1.70;;;12.30;99.90;;;;;;5082899;28;20040;-33
2023/07/22 03:15:44;;;;;;;1.75;1.50;;;12.40;99.90;;;;;;5082617;28;20032;-33
2023/07/22 03:18:10;;;;;;;1.58;1.48;;;12.40;99.90;;;;;;5086798;28;20024;-41
2023/07/22 03:20:37;;;;;;;2.60;1.70;;;12.40;99.90;;;;;;5084362;28;20445;-35
2023/07/22 03:23:04;;;;;;;2.80;1.70;;;12.50;99.90;;;;;;5087977;28;20059;-34
2023/07/22 03:25:30;;;;;;;3.05;1.88;;;12.40;99.90;;;;;;5084387;28;20603;-34
2023/07/22 03:27:56;;;;;;;2.03;1.88;;;12.40;99.90;;;;;;5085612;28;20028;-36
2023/07/22 03:30:22;;;;;;;2.03;1.83;;;12.30;99.90;;;;;;5080595;28;20059;-32
2023/07/22 03:32:50;;;;;;;2.35;1.90;;;12.30;99.90;;;;;;5078377;28;20048;-33
2023/07/22 03:35:16;;;;;;;1.88;1.77;;;12.30;99.90;;;;;;5081034;28;20059;-33
2023/07/22 03:37:42;;;;;;;1.90;1.70;;;12.40;99.90;;;;;;5080651;28;20032;-35
2023/07/22 03:40:26;;;;;;;3.50;2.00;;;12.40;99.90;;;;;;5083127;28;20475;-34
2023/07/22 03:42:53;;;;;;;3.78;2.38;;;12.30;99.90;;;;;;5085388;28;20028;-39
2023/07/22 03:45:20;;;;;;;4.43;2.28;;;12.30;99.90;;;;;;5085396;28;20031;-37
2023/07/22 03:47:47;;;;;;;3.80;2.35;;;12.30;99.90;;;;;;5079598;28;20035;-34
2023/07/22 03:50:13;;;;;;;4.38;2.15;;;12.30;99.90;;;;;;5083184;28;20089;-33
2023/07/22 03:52:39;;;;;;;2.63;1.98;;;12.30;99.90;;;;;;5075816;28;20544;-34
2023/07/22 03:55:05;;;;;;;5.63;2.35;;;12.20;99.90;;;;;;5079460;28;20106;-34
2023/07/22 03:57:31;;;;;;;4.80;1.95;;;12.20;99.90;;;;;;5082726;28;20028;-34
2023/07/22 03:59:57;;;;;;;2.60;2.30;;;12.30;99.90;;;;;;5086106;28;20028;-33
2023/07/22 04:02:23;;;;;;;3.10;1.90;;;12.20;99.90;;;;;;5084005;28;20065;-35
2023/07/22 04:04:51;;;;;;;2.92;2.00;;;12.20;99.90;;;;;;5079881;28;20106;-32
2023/07/22 04:07:17;;;;;;;3.83;1.90;;;12.20;99.90;;;;;;5084360;28;20032;-33
2023/07/22 04:09:43;;;;;;;2.00;1.80;;;12.10;99.90;;;;;;5077435;28;20073;-33
2023/07/22 04:12:08;;;;;;;1.60;1.50;;;12.10;99.90;;;;;;5078246;28;20035;-33
2023/07/22 04:14:34;;;;;;;1.92;1.83;;;12.10;99.90;;;;;;5082815;28;20130;-33
2023/07/22 04:17:00;;;;;;;2.97;1.65;;;12.10;99.90;;;;;;5082562;28;20099;-32
2023/07/22 04:19:25;;;;;;;3.58;1.90;;;12.20;99.90;;;;;;5084387;28;20028;-32
2023/07/22 04:21:51;;;;;;;2.25;1.80;;;12.30;99.90;;;;;;5083806;28;20477;-34
2023/07/22 04:24:16;;;;;;;1.75;1.65;;;12.30;99.90;;;;;;5080014;28;20032;-33
2023/07/22 04:26:43;;;;;;;2.92;1.80;;;12.30;99.90;;;;;;5080520;28;20094;-33
2023/07/22 04:29:09;;;;;;;1.80;1.70;;;12.40;99.90;;;;;;5076176;28;20414;-33
2023/07/22 04:31:35;;;;;;;2.00;1.80;;;12.40;99.90;;;;;;5080113;28;20039;-33
2023/07/22 04:34:00;;;;;;;2.10;1.90;;;12.50;99.90;;;;;;5078129;28;20032;-35
2023/07/22 04:36:26;;;;;;;2.47;1.80;;;12.40;99.90;;;;;;5087264;28;20110;-33
2023/07/22 04:38:51;;;;;;;2.47;2.00;;;12.50;99.90;;;;;;5096908;27;20410;-33
2023/07/22 04:41:17;;;;;;;5.05;2.55;;;12.50;99.90;;;;;;5085749;28;20110;-34
2023/07/22 04:43:42;;;;;;;2.33;2.03;;;12.60;99.90;;;;;;5076726;28;20024;-34
2023/07/22 04:46:08;;;;;;;2.53;1.90;;;12.60;99.90;;;;;;5081629;28;20525;-33
2023/07/22 04:48:34;;;;;;;2.22;1.73;;;12.60;99.90;;;;;;5079068;28;20032;-38
2023/07/22 04:51:00;;;;;;;3.17;1.85;;;12.70;99.90;;;;;;5080510;28;20421;-33
2023/07/22 04:53:26;;;;;;;2.20;2.00;;;12.70;99.90;;;;;;5084993;28;20031;-34
2023/07/22 04:55:51;;;;;;;1.98;1.77;;;12.70;99.90;;;;;;5081626;28;20035;-33
2023/07/22 04:58:17;;;;;;;2.53;1.98;;;12.80;99.90;;;;;;5081937;28;20082;-34
2023/07/22 05:00:43;;;;;;;2.90;2.25;;;12.80;99.90;;;;;;5080143;28;20032;-35
2023/07/22 05:03:09;;;;;;;2.30;2.00;;;12.90;99.90;;;;;;5078608;28;20603;-34
2023/07/22 05:05:36;;;;;;;4.90;2.45;;;12.90;99.90;;;;;;5077169;28;20024;-37
2023/07/22 05:08:01;;;;;;;2.55;2.35;;;13.00;99.90;;;;;;5077305;28;20111;-33
2023/07/22 05:10:28;;;;;;;3.65;2.35;;;13.00;99.90;;;;;;5080634;28;20119;-33
2023/07/22 05:12:54;;;;;;;3.50;2.40;;;13.10;99.90;;;;;;5083617;28;20378;-34
2023/07/22 05:15:20;;;;;;;2.90;2.60;;;13.20;99.90;;;;;;5083932;28;20062;-35
2023/07/22 05:17:46;;;;;;;4.50;2.40;;;13.30;99.90;;;;;;5081105;28;20059;-33
2023/07/22 05:20:12;;;;;;;3.47;2.83;;;13.40;99.90;;;;;;5083001;28;20043;-31
2023/07/22 05:22:39;;;;;;;3.97;2.92;;;13.50;99.90;;;;;;5076238;28;20039;-35
2023/07/22 05:25:06;;;;;;;7.28;2.90;;;13.50;99.90;;;;;;5078209;28;20108;-36
2023/07/22 05:27:31;;;;;;;4.93;3.10;;;13.60;99.90;;;;;;5086159;28;20029;-35
2023/07/22 05:29:57;;;;;;;4.05;3.00;;;13.70;99.90;;;;;;5082078;28;20428;-33
2023/07/22 05:32:23;;;;;;;4.07;2.90;;;13.80;99.90;;;;;;5085483;28;20032;-37
2023/07/22 05:34:48;;;;;;;4.68;3.70;;;13.90;99.90;;;;;;5080207;28;20400;-34
2023/07/22 05:37:14;;;;;;;5.50;3.50;;;14.00;99.90;;;;;;5079901;28;20564;-34
2023/07/22 05:39:39;;;;;;;3.55;3.25;;;14.00;99.90;;;;;;5083070;28;20032;-42
2023/07/22 05:42:06;;;;;;;3.60;3.00;;;14.20;99.90;;;;;;5077558;28;20119;-42
2023/07/22 05:44:31;;;;;;;3.72;3.35;;;14.40;99.90;;;;;;5078199;28;20035;-41
2023/07/22 05:46:57;;;;;;;3.58;2.88;;;14.60;99.90;;;;;;5078958;28;20028;-37
2023/07/22 05:49:23;;;;;;;3.67;3.30;;;14.70;99.90;;;;;;5083681;28;20030;-38
2023/07/22 05:51:48;;;;;;;6.18;3.55;;;14.70;99.90;;;;;;5081788;28;20024;-42
2023/07/22 05:54:14;;;;;;;5.28;3.28;;;14.90;99.90;;;;;;5081385;28;20098;-40
2023/07/22 05:56:40;;;;;;;4.05;3.25;;;15.20;99.90;;;;;;5081846;28;20027;-39
2023/07/22 05:59:06;;;;;;;4.40;3.60;;;15.40;99.90;;;;;;5085951;28;20070;-40
2023/07/22 06:01:32;;;;;;;4.10;3.17;;;15.50;99.90;;;;;;5084372;28;20044;-39
2023/07/22 06:03:58;;;;;;;5.55;3.20;;;15.60;99.90;;;;;;5079567;28;20738;-37
2023/07/22 06:06:24;;;;;;;4.57;3.60;;;15.60;99.90;;;;;;5082927;28;20095;-39
2023/07/22 06:08:49;;;;;;;3.67;3.17;;;15.70;99.90;;;;;;5086329;28;20127;-40
2023/07/22 06:11:15;;;;;;;4.63;3.00;;;15.80;99.90;;;;;;5083896;28;20176;-41
2023/07/22 06:13:40;;;;;;;5.05;3.30;;;15.90;99.90;;;;;;5080560;28;20074;-38
2023/07/22 06:16:06;;;;;;;3.45;2.72;;;16.00;99.90;;;;;;5084523;28;20035;-41
2023/07/22 06:18:32;;;;;;;5.18;3.20;;;16.00;99.90;;;;;;5082969;28;20401;-38
2023/07/22 06:20:57;;;;;;;5.82;3.30;;;16.00;99.90;;;;;;5084468;28;20034;-40
2023/07/22 06:23:23;;;;;;;4.38;2.90;;;16.10;99.90;;;;;;5082855;28;20093;-41
2023/07/22 06:25:48;;;;;;;3.25;2.67;;;16.10;99.90;;;;;;5083731;28;20029;-41
2023/07/22 06:28:14;;;;;;;5.57;2.70;;;16.20;99.90;;;;;;5083809;28;20059;-39
2023/07/22 06:30:40;;;;;;;7.55;2.88;;;16.30;99.90;;;;;;5081724;28;20020;-40
2023/07/22 06:33:05;;;;;;;3.53;2.88;;;16.50;99.90;;;;;;5084071;28;20085;-41
2023/07/22 06:35:31;;;;;;;4.05;3.03;;;16.70;99.90;;;;;;5080461;28;20508;-40
2023/07/22 06:37:56;;;;;;;3.40;2.97;;;16.90;99.90;;;;;;5080821;28;20780;-41
2023/07/22 06:40:22;;;;;;;3.55;2.70;;;17.00;99.90;;;;;;5084772;28;20110;-41
2023/07/22 06:42:48;;;;;;;3.00;2.70;;;17.10;99.90;;;;;;5085886;28;20477;-41
2023/07/22 06:45:13;;;;;;;4.57;2.75;;;17.20;99.90;;;;;;5084841;28;20052;-39
2023/07/22 06:47:39;;;;;;;3.42;2.50;;;17.30;99.90;;;;;;5094346;28;20024;-38
2023/07/22 06:50:05;;;;;;;7.82;2.60;;;17.50;99.90;;;;;;5080211;28;20116;-40
2023/07/22 06:52:31;;;;;;;3.90;2.53;;;17.60;99.90;;;;;;5079145;28;20035;-37
2023/07/22 06:54:57;;;;;;;4.90;2.63;;;17.70;99.90;;;;;;5079139;28;20736;-41
2023/07/22 06:57:25;;;;;;;3.58;2.63;;;17.80;99.90;;;;;;5082950;28;20042;-38
2023/07/22 06:59:53;;;;;;;4.53;2.33;;;17.90;99.90;;;;;;5081245;28;20066;-40
2023/07/22 07:02:19;;;;;;;4.95;2.38;;;17.90;99.90;;;;;;5082793;28;20081;-40
2023/07/22 07:04:45;;;;;;;2.35;2.00;;;17.90;99.90;;;;;;5083901;28;20028;-39
2023/07/22 07:07:12;;;;;;;2.63;2.10;;;18.00;99.90;;;;;;5084112;28;20566;-40
2023/07/22 07:09:38;;;;;;;2.97;2.30;;;18.20;99.90;;;;;;5083456;28;20078;-41
2023/07/22 07:12:04;;;;;;;4.15;2.40;;;18.40;99.90;;;;;;5088758;28;20043;-41
2023/07/22 07:14:30;;;;;;;3.03;2.08;;;18.50;99.90;;;;;;5079720;28;20083;-41
2023/07/22 07:16:55;;;;;;;3.15;1.92;;;18.60;99.90;;;;;;5081495;28;20052;-41
2023/07/22 07:19:21;;;;;;;2.67;1.90;;;18.60;99.90;;;;;;5080121;28;20321;-42
2023/07/22 07:21:47;;;;;;;3.95;2.05;;;18.70;99.90;;;;;;5083510;28;20086;-41
2023/07/22 07:24:12;;;;;;;2.25;2.05;;;19.00;99.90;;;;;;5085164;28;20024;-41
2023/07/22 07:26:38;;;;;;;2.42;1.77;;;19.10;99.90;;;;;;5082638;28;20483;-40
2023/07/22 07:29:04;;;;;;;3.20;1.90;;;19.30;99.90;;;;;;5077744;28;20020;-38
2023/07/22 07:31:30;;;;;;;2.25;2.00;;;19.40;99.90;;;;;;5078757;28;20036;-40
2023/07/22 07:33:55;;;;;;;2.80;1.92;;;19.40;99.90;;;;;;5078373;28;20525;-41
2023/07/22 07:36:21;;;;;;;2.28;2.03;;;19.60;99.90;;;;;;5079256;28;20492;-34
2023/07/22 07:38:47;;;;;;;3.20;1.77;;;19.70;99.90;;;;;;5079716;28;20021;-37
2023/07/22 07:41:13;;;;;;;3.40;2.10;;;19.80;99.90;;;;;;5078839;28;20028;-38
2023/07/22 07:43:40;;;;;;;3.33;2.03;;;19.90;99.90;;;;;;5083399;28;20047;-39
2023/07/22 07:46:13;;;;;;;3.42;2.35;;;20.00;99.90;;;;;;5078900;28;20064;-39
2023/07/22 07:48:38;;;;;;;3.22;1.83;;;20.10;99.90;;;;;;5079564;28;20571;-38
2023/07/22 07:51:04;;;;;;;2.30;2.00;;;20.00;99.90;;;;;;5077843;28;21513;-40
2023/07/22 07:53:29;;;;;;;2.60;2.08;;;20.20;99.90;;;;;;5079483;28;20389;-40
2023/07/22 07:55:55;;;;;;;2.38;1.85;;;20.30;99.90;;;;;;5083232;28;20693;-41
2023/07/22 07:58:20;;;;;;;2.30;1.70;;;20.50;99.90;;;;;;5082029;28;20040;-41
2023/07/22 08:00:46;;;;;;;2.38;1.75;;;20.40;99.90;;;;;;5081577;28;20473;-40
2023/07/22 08:03:12;;;;;;;1.98;1.80;;;20.60;99.90;;;;;;5081015;28;20024;-39
2023/07/22 08:05:37;;;;;;;2.00;1.65;;;20.70;99.90;;;;;;5094035;27;20146;-41
2023/07/22 08:08:03;;;;;;;3.65;1.85;;;20.70;99.90;;;;;;5076292;28;20020;-40
2023/07/22 08:10:28;;;;;;;2.17;1.75;;;20.70;99.90;;;;;;5081053;28;20130;-41
2023/07/22 08:12:54;;;;;;;2.55;1.63;;;20.90;99.90;;;;;;5078257;28;20066;-38
2023/07/22 08:15:20;;;;;;;1.77;1.67;;;20.90;99.90;;;;;;5083944;28;20032;-41
2023/07/22 08:17:45;;;;;;;1.80;1.48;;;20.90;99.90;;;;;;5082438;28;20112;-39
2023/07/22 08:20:11;;;;;;;2.60;1.70;;;20.90;99.90;;;;;;5081827;28;20059;-41
2023/07/22 08:22:36;;;;;;;1.92;1.48;;;21.00;99.90;;;;;;5079621;28;20033;-37
2023/07/22 08:25:02;;;;;;;2.63;1.73;;;21.10;99.90;;;;;;5079915;28;20030;-41
2023/07/22 08:27:28;;;;;;;1.85;1.40;;;21.20;99.90;;;;;;5083642;28;20452;-41
2023/07/22 08:29:54;;;;;;;2.50;1.48;;;21.50;99.90;;;;;;5083823;28;20032;-39
2023/07/22 08:32:20;;;;;;;2.28;1.35;;;21.80;99.90;;;;;;5082997;28;20097;-41
2023/07/22 08:34:45;;;;;;;2.25;1.50;;;21.90;99.90;;;;;;5081585;28;20050;-38
2023/07/22 08:37:11;;;;;;;2.28;1.60;;;21.80;99.90;;;;;;5085213;28;20039;-40
2023/07/22 08:39:37;;;;;;;2.35;1.50;;;21.80;99.90;;;;;;5083041;28;20421;-41
2023/07/22 08:42:05;;;;;;;4.22;1.98;;;21.80;99.90;;;;;;5080124;28;20025;-40
2023/07/22 08:44:35;;;;;;;2.58;1.83;;;22.10;99.90;;;;;;5078374;28;20027;-41
2023/07/22 08:47:03;;;;;;;3.28;1.65;;;22.30;99.90;;;;;;5084276;28;20042;-39
2023/07/22 08:49:30;;;;;;;1.65;1.42;;;22.10;99.90;;;;;;5079286;28;20038;-41
2023/07/22 08:51:57;;;;;;;3.33;1.40;;;22.00;99.90;;;;;;5080181;28;20454;-42
2023/07/22 08:54:23;;;;;;;2.03;1.30;;;22.00;99.90;;;;;;5083341;28;20053;-40
2023/07/22 08:56:50;;;;;;;2.45;1.45;;;22.20;99.90;;;;;;5078201;28;20516;-38
2023/07/22 08:59:17;;;;;;;2.85;1.75;;;22.50;99.90;;;;;;5081257;28;20110;-40
2023/07/22 09:01:44;;;;;;;3.25;1.45;;;22.70;99.90;;;;;;5074872;28;20064;-39
2023/07/22 09:04:09;;;;;;;1.70;1.48;;;22.70;99.90;;;;;;5079133;28;20024;-41
2023/07/22 09:06:35;;;;;;;3.88;1.77;;;22.60;99.90;;;;;;5078512;28;20029;-39
2023/07/22 09:09:07;;;;;;;3.78;1.50;;;22.40;99.90;;;;;;5083640;28;20020;-35
2023/07/22 09:11:33;;;;;;;1.83;1.40;;;22.50;99.90;;;;;;5085942;28;20032;-32
2023/07/22 09:14:01;;;;;;;2.53;1.20;;;22.90;99.90;;;;;;5081375;28;20028;-31
2023/07/22 09:16:27;;;;;;;1.73;1.63;;;23.30;99.90;;;;;;5080266;28;20028;-34
2023/07/22 09:18:59;;;;;;;1.65;1.50;;;23.70;99.90;;;;;;5081418;28;20024;-31
2023/07/22 09:21:25;;;;;;;1.88;1.40;;;23.70;99.90;;;;;;5081299;28;20386;-31
2023/07/22 09:23:50;;;;;;;2.15;1.40;;;23.30;99.90;;;;;;5084041;28;20031;-31
2023/07/22 09:26:17;;;;;;;1.35;1.23;;;23.10;99.90;;;;;;5084851;28;20035;-31
2023/07/22 09:28:59;;;;;;;2.30;1.60;;;23.20;99.90;;;;;;5084354;28;20100;-33
2023/07/22 09:31:27;;;;;;;1.35;1.20;;;23.10;99.90;;;;;;5082863;28;20028;-31
2023/07/22 09:33:54;;;;;;;1.20;1.10;;;22.50;99.90;;;;;;5084312;28;20028;-31
2023/07/22 09:36:20;;;;;;;1.55;1.17;;;22.20;99.90;;;;;;5083083;28;20032;-31
2023/07/22 09:38:57;;;;;;;1.60;1.27;;;22.30;99.90;;;;;;5086658;28;20036;-31
2023/07/22 09:41:27;;;;;;;1.30;1.20;;;22.60;99.90;;;;;;5087857;28;20020;-34
2023/07/22 09:43:53;;;;;;;2.83;1.30;;;23.00;99.90;;;;;;5081721;28;20036;-31
2023/07/22 09:46:19;;;;;;;1.42;1.30;;;22.70;99.90;;;;;;5088406;28;20395;-32
2023/07/22 09:48:46;;;;;;;1.83;1.52;;;22.70;99.90;;;;;;5084228;28;20052;-35
2023/07/22 09:51:13;;;;;;;1.50;1.30;;;22.50;99.90;;;;;;5088415;28;20173;-31
2023/07/22 09:53:47;;;;;;;1.38;1.27;;;22.60;99.90;;;;;;5084507;28;20154;-34
2023/07/22 09:56:13;;;;;;;1.73;1.20;;;23.00;99.90;;;;;;5087598;28;20166;-31
2023/07/22 09:58:40;;;;;;;1.42;1.20;;;23.00;99.90;;;;;;5104703;27;20502;-35
2023/07/22 10:01:07;;;;;;;1.67;1.00;;;22.70;99.90;;;;;;5088405;28;20093;-35
2023/07/22 10:03:36;;;;;;;2.20;1.20;;;22.80;99.90;;;;;;5087404;28;20186;-31
2023/07/22 10:06:05;;;;;;;1.98;1.60;;;23.00;99.90;;;;;;5084961;28;20024;-32
2023/07/22 10:08:35;;;;;;;3.25;1.25;;;22.70;99.90;;;;;;5087419;28;20110;-31
2023/07/22 10:11:05;;;;;;;1.40;0.88;;;23.00;99.90;;;;;;5086819;28;20032;-32
2023/07/22 10:13:32;;;;;;;1.42;1.30;;;23.30;99.90;;;;;;5081992;28;20032;-34
2023/07/22 10:15:58;;;;;;;2.27;1.33;;;23.20;99.90;;;;;;5084071;28;20055;-32
2023/07/22 10:18:25;;;;;;;1.30;1.20;;;23.10;99.90;;;;;;5088412;28;20086;-39
2023/07/22 10:20:51;;;;;;;1.58;1.30;;;23.10;99.90;;;;;;5084664;28;20036;-39
2023/07/22 10:23:18;;;;;;;2.55;1.50;;;22.90;99.90;;;;;;5084766;28;20607;-41
2023/07/22 10:25:45;;;;;;;2.28;1.20;;;23.30;99.90;;;;;;5084145;28;20204;-42
2023/07/22 10:28:12;;;;;;;1.42;1.20;;;23.40;99.90;;;;;;5086602;28;20032;-41
2023/07/22 10:30:37;;;;;;;1.48;1.38;;;23.40;99.90;;;;;;5083680;28;20059;-38
2023/07/22 10:33:03;;;;;;;1.80;1.40;;;23.40;99.90;;;;;;5083123;28;20059;-41
2023/07/22 10:35:32;;;;;;;1.30;1.20;;;23.70;99.90;;;;;;5084414;28;20043;-40
2023/07/22 10:38:11;;;;;;;1.13;1.10;;;23.60;99.90;;;;;;5084482;28;20089;-41
2023/07/22 10:40:49;;;;;;;1.30;1.20;;;23.40;99.90;;;;;;5083258;28;20043;-40
2023/07/22 10:43:23;;;;;;;1.20;1.10;;;23.70;99.90;;;;;;5082613;28;20542;-40
2023/07/22 10:45:51;;;;;;;1.90;1.20;;;23.90;99.90;;;;;;5083482;28;20039;-40
2023/07/22 10:48:18;;;;;;;1.30;1.20;;;24.10;99.90;;;;;;5084064;28;20046;-41
2023/07/22 10:50:49;;;;;;;1.63;1.27;;;24.60;99.90;;;;;;5085383;28;20438;-40
2023/07/22 10:53:24;;;;;;;1.92;1.10;;;24.60;99.90;;;;;;5083868;28;20036;-40
2023/07/22 10:56:06;;;;;;;1.92;1.30;;;24.50;99.90;;;;;;5082902;28;20102;-42
2023/07/22 10:58:33;;;;;;;3.72;1.30;;;24.60;99.90;;;;;;5083413;28;20450;-40
2023/07/22 11:01:30;;;;;;;1.42;1.25;;;24.60;99.90;;;;;;5081504;28;20125;-42
2023/07/22 11:04:15;;;;;;;1.95;1.20;;;24.70;99.90;;;;;;5080028;28;20025;-41
2023/07/22 11:07:00;;;;;;;2.60;1.20;;;24.80;99.90;;;;;;5091980;28;20394;-39
2023/07/22 11:09:35;;;;;;;1.38;1.27;;;24.80;99.90;;;;;;5049130;28;20045;-41
2023/07/22 11:12:10;;;;;;;1.58;1.20;;;25.20;99.90;;;;;;5060765;28;20036;-39
2023/07/22 11:14:46;;;;;;;1.70;1.50;;;25.20;99.90;;;;;;5064358;28;20070;-37
2023/07/22 11:17:12;;;;;;;1.77;1.35;;;25.30;99.90;;;;;;5062162;28;20029;-38
2023/07/22 11:19:39;;;;;;;1.55;1.30;;;25.20;99.90;;;;;;5063147;28;20040;-41
2023/07/22 11:22:05;;;;;;;1.38;1.27;;;25.20;99.90;;;;;;5062247;28;20140;-37
2023/07/22 11:24:34;;;;;;;2.35;1.38;;;25.30;99.90;;;;;;5061193;28;20741;-36
2023/07/22 11:27:06;;;;;;;1.40;1.30;;;25.20;99.90;;;;;;5060790;28;20052;-41
2023/07/22 11:29:32;;;;;;;1.40;1.20;;;25.00;99.90;;;;;;5065962;28;20024;-38
2023/07/22 11:31:58;;;;;;;2.13;1.25;;;24.90;99.90;;;;;;5058598;28;20732;-42
2023/07/22 11:34:25;;;;;;;2.60;1.48;;;24.90;99.90;;;;;;5047694;28;20038;-40
2023/07/22 11:36:52;;;;;;;1.20;1.10;;;25.00;99.90;;;;;;5063280;28;20020;-42
2023/07/22 11:39:20;;;;;;;2.50;1.23;;;25.10;99.90;;;;;;5059539;28;20032;-41
2023/07/22 11:41:47;;;;;;;3.05;1.20;;;25.20;99.90;;;;;;5064745;28;20398;-41
2023/07/22 11:44:16;;;;;;;1.92;1.30;;;25.10;99.90;;;;;;5062158;28;20063;-41
2023/07/22 11:47:19;;;;;;;1.52;1.20;;;25.00;99.90;;;;;;5061945;28;20145;-38
2023/07/22 11:49:47;;;;;;;2.17;1.30;;;25.10;99.90;;;;;;5027415;28;20505;-38
2023/07/22 11:52:19;;;;;;;;;;;25.20;99.90;;;;;;5061623;28;20119;-37
2023/07/22 11:54:46;;;;;;;2.35;1.30;;;25.00;99.90;;;;;;5059982;28;20393;-40
2023/07/22 11:57:21;;;;;;;1.20;1.10;;;24.60;99.90;;;;;;5062640;28;20032;-34
2023/07/22 11:59:52;;;;;;;1.33;1.15;;;24.50;99.90;;;;;;5061769;28;20111;-41
2023/07/22 12:02:17;;;;;;;1.67;1.40;;;24.40;99.90;;;;;;5057575;28;20040;-42
2023/07/22 12:04:51;;;;;;;3.45;1.50;;;24.50;99.90;;;;;;5058536;28;20228;-39
2023/07/22 12:07:30;;;;;;;1.52;1.40;;;24.60;99.90;;;;;;5060497;28;20432;-38
2023/07/22 12:09:58;;;;;;;2.30;1.30;;;25.10;99.90;;;;;;5061615;28;20035;-39
2023/07/22 12:12:37;;;;;;;1.85;1.50;;;24.90;99.90;;;;;;5057218;28;20044;-42
2023/07/22 12:15:17;;;;;;;1.95;1.42;;;24.50;99.90;;;;;;5059721;28;20064;-39
2023/07/22 12:17:51;;;;;;;4.05;1.48;;;24.30;99.90;;;;;;5058552;28;20885;-41
2023/07/22 12:20:18;;;;;;;3.47;1.45;;;24.00;99.90;;;;;;5058422;28;20032;-41
2023/07/22 12:22:44;;;;;;;2.75;1.42;;;23.80;99.90;;;;;;5063109;28;20032;-40
2023/07/22 12:25:10;;;;;;;2.55;1.58;;;23.80;99.90;;;;;;5056290;28;20424;-40
2023/07/22 12:27:36;;;;;;;2.40;1.52;;;23.90;99.90;;;;;;5059452;28;20032;-35
2023/07/22 12:30:03;;;;;;;1.45;1.35;;;23.70;99.90;;;;;;5059896;28;20035;-38
2023/07/22 12:32:28;;;;;;;1.85;1.38;;;23.90;99.90;;;;;;5057617;28;20040;-41
2023/07/22 12:34:54;;;;;;;1.77;1.60;;;24.70;99.90;;;;;;5062654;28;20041;-40
2023/07/22 12:37:20;;;;;;;2.92;1.35;;;25.20;99.90;;;;;;5058535;28;20039;-40
2023/07/22 12:39:45;;;;;;;2.28;1.48;;;25.50;99.90;;;;;;5063198;28;20485;-40
2023/07/22 12:42:11;;;;;;;1.77;1.20;;;25.60;99.90;;;;;;5057515;28;20477;-42
2023/07/22 12:44:37;;;;;;;1.85;1.58;;;25.50;99.90;;;;;;5058764;28;20066;-37
2023/07/22 12:47:02;;;;;;;1.90;1.40;;;25.50;99.90;;;;;;5058228;28;20047;-39